createdAt,value
2019-04-21T00:01:14.653Z,11.83
2019-04-21T00:03:52.733Z,10.83
2019-04-21T00:06:38.238Z,12.13
2019-04-21T00:09:11.174Z,11.93
2019-04-21T00:11:42.566Z,12.47
2019-04-21T00:14:05.603Z,11.80
2019-04-21T00:16:33.306Z,12.20
2019-04-21T00:19:19.518Z,12.43
2019-04-21T00:21:51.127Z,11.77
2019-04-21T00:24:28.912Z,12.03
2019-04-21T00:27:08.199Z,13.50
2019-04-21T00:29:52.071Z,14.13
2019-04-21T00:32:06.711Z,13.73
2019-04-21T00:34:23.753Z,13.33
2019-04-21T00:37:05.883Z,13.97
2019-04-21T00:39:55.736Z,14.33
2019-04-21T00:42:18.380Z,16.43
2019-04-21T00:44:50.139Z,15.47
2019-04-21T00:47:26.663Z,18.20
2019-04-21T00:49:56.494Z,19.23
2019-04-21T00:52:51.279Z,18.20
2019-04-21T00:55:34.211Z,19.80
2019-04-21T00:57:57.195Z,19.00
2019-04-21T01:00:30.917Z,19.57
2019-04-21T01:03:00.907Z,18.63
2019-04-21T01:05:35.343Z,20.10
2019-04-21T01:07:58.119Z,19.87
2019-04-21T01:10:24.185Z,19.73
2019-04-21T01:13:11.087Z,20.20
2019-04-21T01:15:47.438Z,21.07
2019-04-21T01:18:14.861Z,21.97
2019-04-21T01:20:20.934Z,19.70
2019-04-21T01:22:51.568Z,22.60
2019-04-21T01:25:30.236Z,20.40
2019-04-21T01:28:10.046Z,21.20
2019-04-21T01:30:50.235Z,20.67
2019-04-21T01:33:23.003Z,23.07
2019-04-21T01:35:47.942Z,22.73
2019-04-21T01:38:27.306Z,24.87
2019-04-21T01:40:52.893Z,23.00
2019-04-21T01:43:24.686Z,22.30
2019-04-21T01:45:53.907Z,26.27
2019-04-21T01:48:24.655Z,25.27
2019-04-21T01:50:55.587Z,23.93
2019-04-21T01:53:39.458Z,24.53
2019-04-21T01:56:25.745Z,25.27
2019-04-21T01:58:49.349Z,23.20
2019-04-21T02:01:31.396Z,22.80
2019-04-21T02:04:16.661Z,23.17
2019-04-21T02:06:39.082Z,21.50
2019-04-21T02:08:59.018Z,23.07
2019-04-21T02:11:35.425Z,21.43
2019-04-21T02:14:10.207Z,22.27
2019-04-21T02:16:41.497Z,20.53
2019-04-21T02:19:04.790Z,22.63
2019-04-21T02:21:36.939Z,24.90
2019-04-21T02:24:23.545Z,20.67
2019-04-21T02:26:45.672Z,20.33
2019-04-21T02:29:21.812Z,24.73
2019-04-21T02:32:01.863Z,22.03
2019-04-21T02:34:37.856Z,22.33
2019-04-21T02:37:17.538Z,23.33
2019-04-21T02:39:43.615Z,22.50
2019-04-21T02:41:54.505Z,21.73
2019-04-21T02:44:43.277Z,23.70
2019-04-21T02:47:14.254Z,22.47
2019-04-21T02:50:00.357Z,22.77
2019-04-21T02:52:31.671Z,23.87
2019-04-21T02:54:53.973Z,22.67
2019-04-21T03:00:11.954Z,21.57
2019-04-21T03:02:48.949Z,21.53
2019-04-21T03:05:42.891Z,25.73
2019-04-21T03:08:02.978Z,24.70
2019-04-21T03:10:41.474Z,23.33
2019-04-21T03:13:05.697Z,23.27
2019-04-21T03:15:37.273Z,23.90
2019-04-21T03:18:06.403Z,24.10
2019-04-21T03:23:21.338Z,26.27
2019-04-21T03:28:15.699Z,27.63
2019-04-21T03:31:11.581Z,29.13
2019-04-21T03:36:12.869Z,30.50
2019-04-21T03:38:31.498Z,31.47
2019-04-21T03:40:47.340Z,32.57
2019-04-21T03:45:49.237Z,34.23
2019-04-21T03:48:30.027Z,31.10
2019-04-21T03:50:56.317Z,34.47
2019-04-21T03:58:47.437Z,36.37
2019-04-21T04:01:26.057Z,35.70
2019-04-21T04:04:19.602Z,35.40
2019-04-21T04:06:57.076Z,36.87
2019-04-21T04:11:54.687Z,38.37
2019-04-21T04:14:34.148Z,39.00
2019-04-21T04:19:41.926Z,39.80
2019-04-21T04:22:17.214Z,38.97
2019-04-21T04:24:44.815Z,37.77
2019-04-21T04:29:39.661Z,41.70
2019-04-21T04:32:04.964Z,44.43
2019-04-21T04:34:47.687Z,43.90
2019-04-21T04:37:32.090Z,41.87
2019-04-21T04:40:19.688Z,44.77
2019-04-21T04:42:56.873Z,46.47
2019-04-21T04:45:30.701Z,48.70
2019-04-21T04:48:01.186Z,49.57
2019-04-21T04:52:51.221Z,49.60
2019-04-21T04:55:36.698Z,50.10
2019-04-21T04:58:18.745Z,51.20
2019-04-21T05:06:30.613Z,49.40
2019-04-21T05:11:30.948Z,55.60
2019-04-21T05:13:55.011Z,56.43
2019-04-21T05:16:36.375Z,53.40
2019-04-21T05:19:06.347Z,55.63
2019-04-21T05:23:48.377Z,54.57
2019-04-21T05:26:14.969Z,55.57
2019-04-21T05:28:44.569Z,58.40
2019-04-21T05:31:35.041Z,58.67
2019-04-21T05:34:18.998Z,58.20
2019-04-21T05:37:21.751Z,57.67
2019-04-21T05:39:52.280Z,57.07
2019-04-21T05:42:18.731Z,59.57
2019-04-21T05:47:52.000Z,59.57
2019-04-21T05:50:11.553Z,58.83
2019-04-21T05:52:50.379Z,58.30
2019-04-21T05:55:33.464Z,60.00
2019-04-21T05:57:59.943Z,61.83
2019-04-21T06:03:13.466Z,61.90
2019-04-21T06:05:47.304Z,60.83
2019-04-21T06:08:08.168Z,61.87
2019-04-21T06:11:00.176Z,60.40
2019-04-21T06:13:22.092Z,60.33
2019-04-21T06:15:52.892Z,60.63
2019-04-21T06:18:22.110Z,62.97
2019-04-21T06:20:49.211Z,64.57
2019-04-21T06:23:17.922Z,69.00
2019-04-21T06:28:31.761Z,65.60
2019-04-21T06:31:05.946Z,67.30
2019-04-21T06:33:27.583Z,69.07
2019-04-21T06:36:47.508Z,70.30
2019-04-21T06:39:11.623Z,63.83
2019-04-21T06:41:33.881Z,69.87
2019-04-21T06:49:18.782Z,60.70
2019-04-21T06:51:54.798Z,57.70
2019-04-21T06:54:28.912Z,55.70
2019-04-21T06:56:45.065Z,56.13
2019-04-21T06:59:15.128Z,53.03
2019-04-21T07:11:55.036Z,47.00
2019-04-21T07:17:07.386Z,45.83
2019-04-21T07:19:36.684Z,51.50
2019-04-21T07:22:05.868Z,50.83
2019-04-21T07:27:13.074Z,50.10
2019-04-21T07:29:39.973Z,46.80
2019-04-21T07:32:11.781Z,48.30
2019-04-21T07:34:47.937Z,45.10
2019-04-21T07:37:14.868Z,44.73
2019-04-21T07:39:46.614Z,45.13
2019-04-21T07:42:13.465Z,46.87
2019-04-21T07:44:44.771Z,44.67
2019-04-21T07:47:20.486Z,46.30
2019-04-21T07:50:14.619Z,44.90
2019-04-21T07:53:02.053Z,44.23
2019-04-21T07:58:02.921Z,47.43
2019-04-21T08:00:45.477Z,46.17
2019-04-21T08:03:12.879Z,40.53
2019-04-21T08:05:48.443Z,46.00
2019-04-21T08:08:01.445Z,43.03
2019-04-21T08:10:38.046Z,43.60
2019-04-21T08:13:18.606Z,41.60
2019-04-21T08:15:47.136Z,43.80
2019-04-21T08:18:21.057Z,41.53
2019-04-21T08:20:51.325Z,46.13
2019-04-21T08:23:27.888Z,44.90
2019-04-21T08:26:03.272Z,46.73
2019-04-21T08:28:26.526Z,45.23
2019-04-21T08:31:14.360Z,44.10
2019-04-21T08:33:50.335Z,44.30
2019-04-21T08:38:34.379Z,43.40
2019-04-21T08:46:06.713Z,43.70
2019-04-21T08:48:48.100Z,40.67
2019-04-21T08:51:26.095Z,41.37
2019-04-21T08:53:49.111Z,38.93
2019-04-21T08:56:21.716Z,41.83
2019-04-21T08:59:09.532Z,42.53
2019-04-21T09:01:36.841Z,40.47
2019-04-21T09:04:21.211Z,43.20
2019-04-21T09:06:55.714Z,41.80
2019-04-21T09:09:16.498Z,42.40
2019-04-21T09:11:40.398Z,41.90
2019-04-21T09:14:20.724Z,41.77
2019-04-21T09:16:41.233Z,42.43
2019-04-21T09:19:20.343Z,43.47
2019-04-21T09:21:51.652Z,40.90
2019-04-21T09:24:22.239Z,39.23
2019-04-21T09:26:55.661Z,40.50
2019-04-21T09:29:16.048Z,37.80
2019-04-21T09:31:41.802Z,43.97
2019-04-21T09:34:14.342Z,37.63
2019-04-21T09:36:46.738Z,40.13
2019-04-21T09:39:18.056Z,37.03
2019-04-21T09:41:44.919Z,38.60
2019-04-21T09:44:22.132Z,37.20
2019-04-21T09:46:50.578Z,39.17
2019-04-21T09:49:22.452Z,36.90
2019-04-21T09:51:50.527Z,36.90
2019-04-21T09:54:24.845Z,37.37
2019-04-21T09:56:58.548Z,34.83
2019-04-21T09:59:30.064Z,34.83
2019-04-21T10:02:06.372Z,35.57
2019-04-21T10:04:26.746Z,34.40
2019-04-21T10:06:56.547Z,32.13
2019-04-21T10:09:26.497Z,33.43
2019-04-21T10:11:57.010Z,31.17
2019-04-21T10:14:27.024Z,32.37
2019-04-21T10:17:15.133Z,28.77
2019-04-21T10:19:46.323Z,31.97
2019-04-21T10:22:17.026Z,28.20
2019-04-21T10:24:47.043Z,28.63
2019-04-21T10:27:18.909Z,29.63
2019-04-21T10:29:50.545Z,27.47
2019-04-21T10:32:24.000Z,27.30
2019-04-21T10:34:53.388Z,28.77
2019-04-21T10:37:36.550Z,26.73
2019-04-21T10:39:55.800Z,25.97
2019-04-21T10:42:26.889Z,25.27
2019-04-21T10:44:57.016Z,24.77
2019-04-21T10:47:27.049Z,25.67
2019-04-21T10:49:58.265Z,24.27
2019-04-21T10:52:46.946Z,23.57
2019-04-21T10:55:37.969Z,22.70
2019-04-21T10:58:06.603Z,24.23
2019-04-21T11:00:37.228Z,23.57
2019-04-21T11:03:25.134Z,21.93
2019-04-21T11:05:56.684Z,21.60
2019-04-21T11:08:33.740Z,21.33
2019-04-21T11:10:58.415Z,19.70
2019-04-21T11:13:28.447Z,20.13
2019-04-21T11:15:59.291Z,18.30
2019-04-21T11:18:30.067Z,19.47
2019-04-21T11:21:02.858Z,16.50
2019-04-21T11:23:33.204Z,16.90
2019-04-21T11:26:04.355Z,15.53
2019-04-21T11:28:34.718Z,13.97
2019-04-21T11:31:04.926Z,13.13
2019-04-21T11:33:37.471Z,12.97
2019-04-21T11:36:08.988Z,12.60
2019-04-21T11:39:06.191Z,12.63
2019-04-21T11:41:23.877Z,13.40
2019-04-21T11:43:54.995Z,10.87
2019-04-21T11:46:25.032Z,12.37
2019-04-21T11:48:54.845Z,11.90
2019-04-21T11:51:24.894Z,13.90
2019-04-21T11:53:55.059Z,13.23
2019-04-21T11:56:25.145Z,12.13
2019-04-21T11:58:55.065Z,12.60
2019-04-21T12:01:25.646Z,13.23
2019-04-21T12:03:55.749Z,12.60
2019-04-21T12:06:33.485Z,11.33
2019-04-21T12:08:59.842Z,12.60
2019-04-21T12:11:33.715Z,11.17
2019-04-21T12:14:05.891Z,12.07
2019-04-21T12:16:37.051Z,12.10
2019-04-21T12:19:07.212Z,12.17
2019-04-21T12:21:50.511Z,11.70
2019-04-21T12:24:09.053Z,11.43
2019-04-21T12:26:40.153Z,12.60
2019-04-21T12:29:10.128Z,12.70
2019-04-21T12:32:01.388Z,11.77
2019-04-21T12:34:32.172Z,10.20
2019-04-21T12:37:02.199Z,12.10
2019-04-21T12:39:32.735Z,11.30
2019-04-21T12:42:02.853Z,10.57
2019-04-21T12:44:33.600Z,10.53
2019-04-21T12:47:03.746Z,10.67
2019-04-21T12:49:33.910Z,10.57
2019-04-21T12:52:04.215Z,10.67
2019-04-21T12:54:35.395Z,9.10
2019-04-21T12:57:05.491Z,8.80
2019-04-21T12:59:36.323Z,9.33
2019-04-21T13:02:07.481Z,9.07
2019-04-21T13:04:37.892Z,10.53
2019-04-21T13:07:07.953Z,10.27
2019-04-21T13:09:37.877Z,9.13
2019-04-21T13:12:08.995Z,9.47
2019-04-21T13:14:39.906Z,9.37
2019-04-21T13:17:09.925Z,9.50
2019-04-21T13:19:41.140Z,9.13
2019-04-21T13:22:12.215Z,9.80
2019-04-21T13:24:42.232Z,9.20
2019-04-21T13:27:12.765Z,9.07
2019-04-21T13:29:43.943Z,8.73
2019-04-21T13:32:14.508Z,9.70
2019-04-21T13:34:46.018Z,10.17
2019-04-21T13:37:17.300Z,10.17
2019-04-21T13:40:25.219Z,8.27
2019-04-21T13:42:42.626Z,8.73
2019-04-21T13:45:10.090Z,8.87
2019-04-21T13:47:43.526Z,9.37
2019-04-21T13:50:15.153Z,8.50
2019-04-21T13:52:46.731Z,9.00
2019-04-21T13:55:16.808Z,9.43
2019-04-21T13:57:48.165Z,9.10
2019-04-21T14:00:19.430Z,8.67
2019-04-21T14:02:49.522Z,9.83
2019-04-21T14:05:20.306Z,8.67
2019-04-21T14:07:50.404Z,8.73
2019-04-21T14:10:21.715Z,9.03
2019-04-21T14:12:51.736Z,9.20
2019-04-21T14:15:22.133Z,9.80
2019-04-21T14:17:53.045Z,9.20
2019-04-21T14:20:24.842Z,8.70
2019-04-21T14:22:59.564Z,9.00
2019-04-21T14:25:27.857Z,9.47
2019-04-21T14:27:58.071Z,7.83
2019-04-21T14:30:28.477Z,8.50
2019-04-21T14:32:58.516Z,8.33
2019-04-21T14:35:29.407Z,7.70
2019-04-21T14:38:00.538Z,8.17
2019-04-21T14:40:33.252Z,8.50
2019-04-21T14:43:02.669Z,9.17
2019-04-21T14:45:54.750Z,8.67
2019-04-21T14:48:43.131Z,8.03
2019-04-21T14:51:37.020Z,7.70
2019-04-21T14:54:24.942Z,7.67
2019-04-21T14:56:55.558Z,8.80
2019-04-21T14:59:26.989Z,7.97
2019-04-21T15:01:57.906Z,8.23
2019-04-21T15:04:28.069Z,10.07
2019-04-21T15:06:59.207Z,9.73
2019-04-21T15:09:29.479Z,7.83
2019-04-21T15:12:00.254Z,8.07
2019-04-21T15:14:31.778Z,7.73
2019-04-21T15:17:02.959Z,7.97
2019-04-21T15:19:32.895Z,8.33
2019-04-21T15:22:02.758Z,8.43
2019-04-21T15:24:34.136Z,8.48
2019-04-21T15:27:05.102Z,8.35
2019-04-21T15:29:35.263Z,9.43
2019-04-21T15:32:06.309Z,8.68
2019-04-21T15:34:36.368Z,8.83
2019-04-21T15:37:06.223Z,9.08
2019-04-21T15:39:36.066Z,9.88
2019-04-21T15:42:06.252Z,10.15
2019-04-21T15:44:36.702Z,9.85
2019-04-21T15:47:08.093Z,8.50
2019-04-21T15:50:00.875Z,8.60
2019-04-21T15:52:27.975Z,8.48
2019-04-21T15:55:06.122Z,9.18
2019-04-21T15:57:44.356Z,8.93
2019-04-21T16:00:20.747Z,7.67
2019-04-21T16:02:50.881Z,10.25
2019-04-21T16:05:20.792Z,13.62
2019-04-21T16:07:51.927Z,11.08
2019-04-21T16:10:34.605Z,8.25
2019-04-21T16:12:54.067Z,10.55
2019-04-21T16:15:23.958Z,10.05
2019-04-21T16:17:55.074Z,8.15
2019-04-21T16:20:25.918Z,8.48
2019-04-21T16:22:57.226Z,8.95
2019-04-21T16:25:28.441Z,8.75
2019-04-21T16:27:59.458Z,8.88
2019-04-21T16:30:30.833Z,8.28
2019-04-21T16:33:01.939Z,8.20
2019-04-21T16:35:32.026Z,7.97
2019-04-21T16:38:02.814Z,8.45
2019-04-21T16:40:43.057Z,8.55
2019-04-21T16:43:05.966Z,8.28
2019-04-21T16:45:36.998Z,9.18
2019-04-21T16:48:07.439Z,7.30
2019-04-21T16:50:37.534Z,7.40
2019-04-21T16:53:14.382Z,7.20
2019-04-21T16:55:57.319Z,7.37
2019-04-21T16:58:32.515Z,7.72
2019-04-21T17:01:15.919Z,7.47
2019-04-21T17:03:42.621Z,9.00
2019-04-21T17:06:13.223Z,7.53
2019-04-21T17:08:43.212Z,7.33
2019-04-21T17:11:19.314Z,6.85
2019-04-21T17:13:45.758Z,7.53
2019-04-21T17:16:42.211Z,7.58
2019-04-21T17:18:57.388Z,7.53
2019-04-21T17:21:19.357Z,6.58
2019-04-21T17:23:50.554Z,6.53
2019-04-21T17:26:21.290Z,6.67
2019-04-21T17:28:52.278Z,6.33
2019-04-21T17:31:22.389Z,6.87
2019-04-21T17:34:01.984Z,5.95
2019-04-21T17:36:25.195Z,8.18
2019-04-21T17:38:56.121Z,7.10
2019-04-21T17:41:35.254Z,8.38
2019-04-21T17:44:00.345Z,8.35
2019-04-21T17:46:43.132Z,7.42
2019-04-21T17:49:03.063Z,8.58
2019-04-21T17:52:00.493Z,7.97
2019-04-21T17:54:37.698Z,8.78
2019-04-21T17:57:23.182Z,9.78
2019-04-21T18:02:30.691Z,9.53
2019-04-21T18:05:03.648Z,8.95
2019-04-21T18:07:31.471Z,8.77
2019-04-21T18:10:13.622Z,7.77
2019-04-21T18:12:33.722Z,8.70
2019-04-21T18:15:00.074Z,7.80
2019-04-21T18:17:22.655Z,9.63
2019-04-21T18:19:55.090Z,8.43
2019-04-21T18:22:46.897Z,9.07
2019-04-21T18:25:32.012Z,8.53
2019-04-21T18:27:50.606Z,9.20
2019-04-21T18:30:48.731Z,8.83
2019-04-21T18:33:27.181Z,9.17
2019-04-21T18:36:08.664Z,10.10
2019-04-21T18:39:16.788Z,9.27
2019-04-21T18:41:41.040Z,10.73
2019-04-21T18:44:42.561Z,10.43
2019-04-21T18:47:20.021Z,10.40
2019-04-21T18:49:52.374Z,10.07
2019-04-21T18:52:51.093Z,10.73
2019-04-21T18:55:19.754Z,11.70
2019-04-21T18:57:44.408Z,9.73
2019-04-21T19:00:17.950Z,10.90
2019-04-21T19:02:47.737Z,10.37
2019-04-21T19:05:19.170Z,11.63
2019-04-21T19:08:05.692Z,10.10
2019-04-21T19:13:33.258Z,11.33
2019-04-21T19:15:48.156Z,12.23
2019-04-21T19:20:47.498Z,11.70
2019-04-21T19:23:11.572Z,11.10
2019-04-21T19:25:48.356Z,12.70
2019-04-21T19:28:16.427Z,13.23
2019-04-21T19:30:57.579Z,12.23
2019-04-21T19:33:14.173Z,13.03
2019-04-21T19:35:32.282Z,12.53
2019-04-21T19:38:07.011Z,14.00
2019-04-21T19:40:50.897Z,13.80
2019-04-21T19:43:22.327Z,13.70
2019-04-21T19:45:49.546Z,14.03
2019-04-21T19:48:24.144Z,13.57
2019-04-21T19:50:58.944Z,13.53
2019-04-21T19:53:25.284Z,13.37
2019-04-21T19:55:42.454Z,13.43
2019-04-21T19:58:12.722Z,13.47
2019-04-21T20:00:42.551Z,14.53
2019-04-21T20:03:12.387Z,13.57
2019-04-21T20:05:49.514Z,13.87
2019-04-21T20:08:27.894Z,13.60
2019-04-21T20:11:05.356Z,13.17
2019-04-21T20:13:48.766Z,13.83
2019-04-21T20:16:06.845Z,14.07
2019-04-21T20:18:27.457Z,13.90
2019-04-21T20:20:52.185Z,13.40
2019-04-21T20:23:27.449Z,13.83
2019-04-21T20:26:00.252Z,12.73
2019-04-21T20:28:41.762Z,12.97
2019-04-21T20:31:15.933Z,13.27
2019-04-21T20:36:21.078Z,14.43
2019-04-21T20:38:42.130Z,14.50
2019-04-21T20:41:19.652Z,13.33
2019-04-21T20:43:54.168Z,13.50
2019-04-21T20:46:26.855Z,14.13
2019-04-21T20:48:50.976Z,14.33
2019-04-21T20:51:27.366Z,13.37
2019-04-21T20:53:53.769Z,13.43
2019-04-21T20:56:21.207Z,13.40
2019-04-21T20:59:01.285Z,13.93
2019-04-21T21:01:44.412Z,13.80
2019-04-21T21:03:57.865Z,14.53
2019-04-21T21:06:31.599Z,12.73
2019-04-21T21:09:06.164Z,15.77
2019-04-21T21:11:41.119Z,14.90
2019-04-21T21:14:11.346Z,14.17
2019-04-21T21:16:47.691Z,13.57
2019-04-21T21:19:21.021Z,12.77
2019-04-21T21:21:41.512Z,15.03
2019-04-21T21:24:13.589Z,13.50
2019-04-21T21:26:49.901Z,14.53
2019-04-21T21:29:21.349Z,14.57
2019-04-21T21:31:47.523Z,13.93
2019-04-21T21:34:31.003Z,14.77
2019-04-21T21:36:55.097Z,14.30
2019-04-21T21:39:21.579Z,13.50
2019-04-21T21:41:46.431Z,14.80
2019-04-21T21:44:16.121Z,13.90
2019-04-21T21:46:53.866Z,16.50
2019-04-21T21:49:29.326Z,15.17
2019-04-21T21:52:01.698Z,14.40
2019-04-21T21:54:18.016Z,15.10
2019-04-21T21:56:47.818Z,15.20
2019-04-21T21:59:23.442Z,15.13
2019-04-21T22:01:52.526Z,15.77
2019-04-21T22:04:26.365Z,15.37
2019-04-21T22:06:59.875Z,15.47
2019-04-21T22:09:24.245Z,16.20
2019-04-21T22:11:57.925Z,14.90
2019-04-21T22:14:32.825Z,15.97
2019-04-21T22:17:11.010Z,17.10
2019-04-21T22:19:52.256Z,16.00
2019-04-21T22:22:16.814Z,15.00
2019-04-21T22:24:46.388Z,15.63
2019-04-21T22:27:03.159Z,15.00
2019-04-21T22:29:37.860Z,15.03
2019-04-21T22:32:11.411Z,14.37
2019-04-21T22:34:44.027Z,13.83
2019-04-21T22:37:27.530Z,13.20
2019-04-21T22:39:53.026Z,14.70
2019-04-21T22:42:19.432Z,12.60
2019-04-21T22:44:42.862Z,13.67
2019-04-21T22:47:18.415Z,13.63
2019-04-21T22:49:44.490Z,13.77
2019-04-21T22:52:19.080Z,14.23
2019-04-21T22:54:48.488Z,13.47
2019-04-21T22:57:21.628Z,13.03
2019-04-21T22:59:54.965Z,12.57
2019-04-21T23:02:26.472Z,13.77
2019-04-21T23:04:56.674Z,13.17
2019-04-21T23:07:24.717Z,12.47
2019-04-21T23:09:55.543Z,12.93
2019-04-21T23:12:29.662Z,13.97
2019-04-21T23:15:03.831Z,12.93
2019-04-21T23:17:51.809Z,12.30
2019-04-21T23:20:19.931Z,14.73
2019-04-21T23:22:58.432Z,12.80
2019-04-21T23:25:22.304Z,11.90
2019-04-21T23:27:54.908Z,12.77
2019-04-21T23:30:34.085Z,13.13
2019-04-21T23:32:48.805Z,13.17
2019-04-21T23:35:18.005Z,12.80
2019-04-21T23:37:50.067Z,11.87
2019-04-21T23:40:17.976Z,11.30
2019-04-21T23:42:45.446Z,11.43
2019-04-21T23:45:18.298Z,12.17
2019-04-21T23:48:05.286Z,12.07
2019-04-21T23:50:30.707Z,13.40
2019-04-21T23:52:51.026Z,12.60
2019-04-21T23:55:21.163Z,11.53
2019-04-21T23:57:56.126Z,13.47
